createdAt,value
2018-03-24T00:00:28.617Z,26.7
2018-03-24T00:01:18.894Z,26.7
2018-03-24T00:02:09.024Z,26.7
2018-03-24T00:02:59.274Z,26.6
2018-03-24T00:03:49.556Z,26.7
2018-03-24T00:04:39.658Z,26.7
2018-03-24T00:05:29.676Z,26.6
2018-03-24T00:06:20.004Z,26.7
2018-03-24T00:07:10.256Z,26.7
2018-03-24T00:08:00.361Z,26.6
2018-03-24T00:08:50.124Z,26.6
2018-03-24T00:09:40.138Z,26.7
2018-03-24T00:10:30.501Z,26.7
2018-03-24T00:11:20.564Z,26.6
2018-03-24T00:12:10.355Z,26.6
2018-03-24T00:13:00.123Z,26.6
2018-03-24T00:13:50.451Z,26.6
2018-03-24T00:14:41.130Z,26.6
2018-03-24T00:15:30.187Z,26.6
2018-03-24T00:16:20.615Z,26.6
2018-03-24T00:17:10.115Z,26.6
2018-03-24T00:18:00.078Z,26.6
2018-03-24T00:18:50.014Z,26.6
2018-03-24T00:19:40.006Z,26.6
2018-03-24T00:20:30.057Z,26.6
2018-03-24T00:21:20.306Z,26.6
2018-03-24T00:22:10.451Z,26.6
2018-03-24T00:23:00.592Z,26.6
2018-03-24T00:23:51.291Z,26.6
2018-03-24T00:24:40.996Z,26.6
2018-03-24T00:25:31.337Z,26.6
2018-03-24T00:26:20.477Z,26.6
2018-03-24T00:27:11.417Z,26.6
2018-03-24T00:28:00.956Z,26.6
2018-03-24T00:28:51.345Z,26.6
2018-03-24T00:29:41.646Z,26.6
2018-03-24T00:30:31.200Z,26.6
2018-03-24T00:31:20.338Z,26.6
2018-03-24T00:32:10.988Z,26.6
2018-03-24T00:33:01.312Z,26.6
2018-03-24T00:33:50.791Z,26.6
2018-03-24T00:34:41.883Z,26.6
2018-03-24T00:35:30.943Z,26.6
2018-03-24T00:36:21.231Z,26.6
2018-03-24T00:37:10.858Z,26.6
2018-03-24T00:38:01.358Z,26.6
2018-03-24T00:38:51.655Z,26.6
2018-03-24T00:39:41.674Z,26.6
2018-03-24T00:40:31.439Z,26.6
2018-03-24T00:41:21.807Z,26.6
2018-03-24T00:42:12.112Z,26.6
2018-03-24T00:43:02.398Z,26.6
2018-03-24T00:43:51.702Z,26.6
2018-03-24T00:44:41.294Z,26.6
2018-03-24T00:45:32.029Z,26.6
2018-03-24T00:46:22.505Z,26.6
2018-03-24T00:47:12.267Z,26.6
2018-03-24T00:48:02.274Z,26.6
2018-03-24T00:48:52.391Z,26.6
2018-03-24T00:49:42.354Z,26.6
2018-03-24T00:50:32.766Z,26.6
2018-03-24T00:51:22.036Z,26.6
2018-03-24T00:52:11.464Z,26.6
2018-03-24T00:53:02.585Z,26.6
2018-03-24T00:53:53.208Z,26.5
2018-03-24T00:54:42.951Z,26.6
2018-03-24T00:55:32.544Z,26.6
2018-03-24T00:56:22.714Z,26.5
2018-03-24T00:57:12.251Z,26.5
2018-03-24T00:58:02.389Z,26.5
2018-03-24T00:58:53.374Z,26.5
2018-03-24T00:59:43.314Z,26.5
2018-03-24T01:00:32.806Z,26.5
2018-03-24T01:01:22.463Z,26.5
2018-03-24T01:02:11.984Z,26.5
2018-03-24T01:03:04.096Z,26.5
2018-03-24T01:03:53.882Z,26.5
2018-03-24T01:04:43.532Z,26.5
2018-03-24T01:05:32.980Z,26.5
2018-03-24T01:06:23.818Z,26.5
2018-03-24T01:07:13.201Z,26.5
2018-03-24T01:08:03.190Z,26.5
2018-03-24T01:08:54.298Z,26.5
2018-03-24T01:09:43.390Z,26.5
2018-03-24T01:10:33.587Z,26.5
2018-03-24T01:11:23.398Z,26.5
2018-03-24T01:12:12.942Z,26.4
2018-03-24T01:13:03.849Z,26.5
2018-03-24T01:13:53.216Z,26.4
2018-03-24T01:14:43.451Z,26.5
2018-03-24T01:15:33.903Z,26.4
2018-03-24T01:16:24.083Z,26.4
2018-03-24T01:17:13.696Z,26.4
2018-03-24T01:18:04.343Z,26.4
2018-03-24T01:18:54.595Z,26.4
2018-03-24T01:19:44.449Z,26.4
2018-03-24T01:20:35.559Z,26.4
2018-03-24T01:21:25.589Z,26.4
2018-03-24T01:22:15.383Z,26.4
2018-03-24T01:23:05.152Z,26.4
2018-03-24T01:23:55.795Z,26.4
2018-03-24T01:24:45.565Z,26.4
2018-03-24T01:25:35.350Z,26.4
2018-03-24T01:26:25.673Z,26.4
2018-03-24T01:27:15.489Z,26.4
2018-03-24T01:28:05.788Z,26.4
2018-03-24T01:28:55.865Z,26.4
2018-03-24T01:29:45.352Z,26.4
2018-03-24T01:30:35.382Z,26.4
2018-03-24T01:31:26.037Z,26.4
2018-03-24T01:32:16.147Z,26.4
2018-03-24T01:33:05.891Z,26.4
2018-03-24T01:33:55.924Z,26.4
2018-03-24T01:34:46.553Z,26.4
2018-03-24T01:35:36.342Z,26.4
2018-03-24T01:36:26.399Z,26.4
2018-03-24T01:37:16.420Z,26.4
2018-03-24T01:38:06.182Z,26.4
2018-03-24T01:38:55.700Z,26.4
2018-03-24T01:39:45.924Z,26.4
2018-03-24T01:40:35.914Z,26.4
2018-03-24T01:41:25.755Z,26.4
2018-03-24T01:42:16.250Z,26.4
2018-03-24T01:43:05.353Z,26.4
2018-03-24T01:43:56.031Z,26.4
2018-03-24T01:44:46.189Z,26.4
2018-03-24T01:45:36.572Z,26.4
2018-03-24T01:46:26.530Z,26.4
2018-03-24T01:47:16.864Z,26.4
2018-03-24T01:48:06.665Z,26.4
2018-03-24T01:48:56.559Z,26.4
2018-03-24T01:49:46.546Z,26.4
2018-03-24T01:50:35.950Z,26.3
2018-03-24T01:51:26.561Z,26.4
2018-03-24T01:52:17.001Z,26.3
2018-03-24T01:53:07.001Z,26.4
2018-03-24T01:53:56.328Z,26.4
2018-03-24T01:54:46.111Z,26.4
2018-03-24T01:55:36.756Z,26.4
2018-03-24T01:56:26.780Z,26.3
2018-03-24T01:57:16.478Z,26.4
2018-03-24T01:58:07.301Z,26.3
2018-03-24T01:58:56.693Z,26.3
2018-03-24T01:59:47.130Z,26.3
2018-03-24T02:00:37.002Z,26.3
2018-03-24T02:01:27.457Z,26.4
2018-03-24T02:02:17.772Z,26.3
2018-03-24T02:03:07.637Z,26.4
2018-03-24T02:03:57.358Z,26.4
2018-03-24T02:04:47.470Z,26.4
2018-03-24T02:05:38.205Z,26.4
2018-03-24T02:06:27.192Z,26.6
2018-03-24T02:07:17.460Z,26.6
2018-03-24T02:08:08.053Z,26.7
2018-03-24T02:08:57.342Z,26.8
2018-03-24T02:09:47.599Z,26.8
2018-03-24T02:10:38.470Z,26.9
2018-03-24T02:11:27.965Z,26.9
2018-03-24T02:12:17.650Z,27.1
2018-03-24T02:13:07.765Z,27.1
2018-03-24T02:13:58.285Z,27.2
2018-03-24T02:14:47.094Z,27.3
2018-03-24T02:15:37.809Z,27.4
2018-03-24T02:16:28.581Z,27.4
2018-03-24T02:17:17.735Z,27.4
2018-03-24T02:18:08.087Z,27.5
2018-03-24T02:18:58.033Z,27.6
2018-03-24T02:19:47.947Z,27.7
2018-03-24T02:21:28.597Z,27.9
2018-03-24T02:22:17.889Z,27.9
2018-03-24T02:23:09.292Z,28
2018-03-24T02:23:59.612Z,28.1
2018-03-24T02:24:49.386Z,28.2
2018-03-24T02:25:39.131Z,28.3
2018-03-24T02:26:30.084Z,28.3
2018-03-24T02:27:20.105Z,28.4
2018-03-24T02:28:09.893Z,28.5
2018-03-24T02:28:59.654Z,28.6
2018-03-24T02:29:49.438Z,28.6
2018-03-24T02:30:39.554Z,28.7
2018-03-24T02:31:29.384Z,28.8
2018-03-24T02:32:18.775Z,28.9
2018-03-24T02:33:09.421Z,28.9
2018-03-24T02:33:58.683Z,29
2018-03-24T02:34:50.111Z,29.1
2018-03-24T02:35:39.677Z,29.2
2018-03-24T02:36:28.871Z,29.3
2018-03-24T02:37:19.388Z,29.3
2018-03-24T02:38:09.818Z,29.4
2018-03-24T02:38:59.957Z,29.4
2018-03-24T02:39:48.696Z,29.5
2018-03-24T02:40:40.043Z,29.6
2018-03-24T02:41:29.888Z,29.7
2018-03-24T02:42:20.122Z,29.8
2018-03-24T02:43:10.011Z,29.8
2018-03-24T02:44:00.552Z,29.9
2018-03-24T02:44:49.930Z,29.9
2018-03-24T02:45:40.629Z,30
2018-03-24T02:46:29.810Z,30.1
2018-03-24T02:47:19.906Z,30.1
2018-03-24T02:48:10.335Z,30.2
2018-03-24T02:49:00.503Z,30.3
2018-03-24T02:49:49.764Z,30.3
2018-03-24T02:50:40.704Z,30.4
2018-03-24T02:51:30.970Z,30.5
2018-03-24T02:52:20.529Z,30.6
2018-03-24T02:53:10.677Z,30.6
2018-03-24T02:54:01.207Z,30.8
2018-03-24T02:54:51.029Z,30.8
2018-03-24T02:55:40.477Z,30.9
2018-03-24T02:56:31.610Z,31
2018-03-24T02:57:20.477Z,31.1
2018-03-24T02:58:11.141Z,31.2
2018-03-24T02:59:01.334Z,31.3
2018-03-24T02:59:51.156Z,31.3
2018-03-24T03:00:42.169Z,31.4
2018-03-24T03:01:30.650Z,31.5
2018-03-24T03:02:21.755Z,31.6
2018-03-24T03:03:11.284Z,31.6
2018-03-24T03:04:01.673Z,31.7
2018-03-24T03:04:51.644Z,31.8
2018-03-24T03:05:42.301Z,31.9
2018-03-24T03:06:32.315Z,31.9
2018-03-24T03:07:22.424Z,32
2018-03-24T03:08:12.151Z,32.1
2018-03-24T03:09:02.546Z,32.2
2018-03-24T03:09:52.571Z,32.3
2018-03-24T03:10:42.594Z,32.3
2018-03-24T03:11:32.121Z,32.4
2018-03-24T03:12:22.736Z,32.5
2018-03-24T03:13:12.391Z,32.6
2018-03-24T03:14:02.249Z,32.6
2018-03-24T03:14:52.916Z,32.8
2018-03-24T03:15:42.092Z,32.8
2018-03-24T03:16:32.971Z,32.9
2018-03-24T03:17:22.798Z,33
2018-03-24T03:18:13.097Z,33.1
2018-03-24T03:19:02.862Z,33.2
2018-03-24T03:19:51.790Z,33.3
2018-03-24T03:20:42.227Z,33.4
2018-03-24T03:21:32.208Z,33.4
2018-03-24T03:22:21.573Z,33.5
2018-03-24T03:23:12.637Z,33.6
2018-03-24T03:24:03.157Z,33.7
2018-03-24T03:24:52.819Z,33.8
2018-03-24T03:25:43.635Z,33.9
2018-03-24T03:26:32.802Z,33.9
2018-03-24T03:27:22.525Z,34
2018-03-24T03:28:12.974Z,34.1
2018-03-24T03:29:02.535Z,34.2
2018-03-24T03:29:53.082Z,34.3
2018-03-24T03:30:42.678Z,34.4
2018-03-24T03:31:33.985Z,34.4
2018-03-24T03:32:23.451Z,34.5
2018-03-24T03:33:12.945Z,34.5
2018-03-24T03:34:03.173Z,34.6
2018-03-24T03:34:53.508Z,34.6
2018-03-24T03:35:42.750Z,34.7
2018-03-24T03:36:33.817Z,34.7
2018-03-24T03:37:23.402Z,34.8
2018-03-24T03:38:14.031Z,34.8
2018-03-24T03:39:03.521Z,34.8
2018-03-24T03:39:53.847Z,34.9
2018-03-24T03:40:44.317Z,34.9
2018-03-24T03:41:34.447Z,34.9
2018-03-24T03:42:24.081Z,34.9
2018-03-24T03:43:12.821Z,35
2018-03-24T03:44:02.958Z,35
2018-03-24T03:44:54.676Z,35
2018-03-24T03:45:44.628Z,35.1
2018-03-24T03:46:34.218Z,35.1
2018-03-24T03:47:25.397Z,35.1
2018-03-24T03:48:14.867Z,35.1
2018-03-24T03:49:04.606Z,35.1
2018-03-24T03:49:55.147Z,35.2
2018-03-24T03:50:45.086Z,35.2
2018-03-24T03:51:34.594Z,35.3
2018-03-24T03:52:24.213Z,35.3
2018-03-24T03:53:15.364Z,35.3
2018-03-24T03:54:04.896Z,35.3
2018-03-24T03:54:54.796Z,35.3
2018-03-24T03:55:44.164Z,35.3
2018-03-24T03:56:34.817Z,35.4
2018-03-24T03:57:25.569Z,35.4
2018-03-24T03:58:15.324Z,35.4
2018-03-24T03:59:05.571Z,35.4
2018-03-24T03:59:55.453Z,35.4
2018-03-24T04:00:44.795Z,35.4
2018-03-24T04:01:36.041Z,35.4
2018-03-24T04:02:24.818Z,35.4
2018-03-24T04:03:15.456Z,35.4
2018-03-24T04:04:06.011Z,35.4
2018-03-24T04:04:55.203Z,35.5
2018-03-24T04:05:44.842Z,35.5
2018-03-24T04:06:35.932Z,35.5
2018-03-24T04:07:25.425Z,35.5
2018-03-24T04:08:15.726Z,35.5
2018-03-24T04:09:06.548Z,35.6
2018-03-24T04:09:55.893Z,35.6
2018-03-24T04:10:46.738Z,35.6
2018-03-24T04:11:36.228Z,35.6
2018-03-24T04:12:26.098Z,35.6
2018-03-24T04:13:16.707Z,35.6
2018-03-24T04:14:05.808Z,35.6
2018-03-24T04:14:55.940Z,35.6
2018-03-24T04:15:46.700Z,35.6
2018-03-24T04:16:36.583Z,35.6
2018-03-24T04:17:26.417Z,35.6
2018-03-24T04:18:16.091Z,35.6
2018-03-24T04:19:07.030Z,35.6
2018-03-24T04:19:56.114Z,35.6
2018-03-24T04:20:46.352Z,35.6
2018-03-24T04:21:36.587Z,35.7
2018-03-24T04:22:26.871Z,35.6
2018-03-24T04:23:17.491Z,35.7
2018-03-24T04:24:06.785Z,35.7
2018-03-24T04:24:57.062Z,35.7
2018-03-24T04:25:47.032Z,35.7
2018-03-24T04:26:37.706Z,35.7
2018-03-24T04:27:26.724Z,35.7
2018-03-24T04:28:16.861Z,35.8
2018-03-24T04:29:07.714Z,35.7
2018-03-24T04:29:57.094Z,35.8
2018-03-24T04:30:47.010Z,35.8
2018-03-24T04:31:37.807Z,35.8
2018-03-24T04:32:27.871Z,35.8
2018-03-24T04:33:18.024Z,35.8
2018-03-24T04:34:07.774Z,35.8
2018-03-24T04:34:57.132Z,35.8
2018-03-24T04:35:47.354Z,35.8
2018-03-24T04:36:37.519Z,35.8
2018-03-24T04:37:27.576Z,35.8
2018-03-24T04:38:18.512Z,35.8
2018-03-24T04:39:08.549Z,35.8
2018-03-24T04:39:59.166Z,35.8
2018-03-24T04:40:49.224Z,35.8
2018-03-24T04:41:39.289Z,35.8
2018-03-24T04:42:29.083Z,35.8
2018-03-24T04:43:19.431Z,35.8
2018-03-24T04:44:09.469Z,35.8
2018-03-24T04:44:59.545Z,35.8
2018-03-24T04:45:48.990Z,35.8
2018-03-24T04:46:39.614Z,35.8
2018-03-24T04:47:29.459Z,35.8
2018-03-24T04:48:19.790Z,35.9
2018-03-24T04:49:09.224Z,35.8
2018-03-24T04:49:59.286Z,35.8
2018-03-24T04:50:49.915Z,35.9
2018-03-24T04:51:40.031Z,35.8
2018-03-24T04:52:29.724Z,35.8
2018-03-24T04:53:20.121Z,35.8
2018-03-24T04:54:09.886Z,35.8
2018-03-24T04:54:59.906Z,35.8
2018-03-24T04:55:49.675Z,35.8
2018-03-24T04:56:39.729Z,35.8
2018-03-24T04:57:30.346Z,35.8
2018-03-24T04:58:19.876Z,35.8
2018-03-24T04:59:09.949Z,35.8
2018-03-24T05:00:00.275Z,35.8
2018-03-24T05:00:49.910Z,35.8
2018-03-24T05:01:39.538Z,35.8
2018-03-24T05:02:30.169Z,35.8
2018-03-24T05:03:20.525Z,35.8
2018-03-24T05:04:09.740Z,35.8
2018-03-24T05:05:00.593Z,35.8
2018-03-24T05:05:50.141Z,35.8
2018-03-24T05:06:40.229Z,35.8
2018-03-24T05:07:30.800Z,35.8
2018-03-24T05:08:20.559Z,35.8
2018-03-24T05:09:10.883Z,35.8
2018-03-24T05:10:00.980Z,35.8
2018-03-24T05:10:50.474Z,35.8
2018-03-24T05:11:41.317Z,35.8
2018-03-24T05:12:30.357Z,35.8
2018-03-24T05:13:20.412Z,35.8
2018-03-24T05:14:11.232Z,35.8
2018-03-24T05:15:00.510Z,35.8
2018-03-24T05:15:49.996Z,35.8
2018-03-24T05:16:40.857Z,35.8
2018-03-24T05:17:31.029Z,35.8
2018-03-24T05:18:20.759Z,35.8
2018-03-24T05:19:10.541Z,35.8
2018-03-24T05:20:00.837Z,35.8
2018-03-24T05:20:51.203Z,35.8
2018-03-24T05:21:41.286Z,35.8
2018-03-24T05:22:31.589Z,35.8
2018-03-24T05:23:20.794Z,35.8
2018-03-24T05:24:11.722Z,35.8
2018-03-24T05:25:01.499Z,35.8
2018-03-24T05:25:51.999Z,35.8
2018-03-24T05:26:42.103Z,35.7
2018-03-24T05:27:31.657Z,35.7
2018-03-24T05:28:22.013Z,35.7
2018-03-24T05:29:10.974Z,35.7
2018-03-24T05:30:01.801Z,35.7
2018-03-24T05:30:52.361Z,35.6
2018-03-24T05:31:41.841Z,35.6
2018-03-24T05:32:32.479Z,35.6
2018-03-24T05:33:22.536Z,35.6
2018-03-24T05:34:12.605Z,35.6
2018-03-24T05:35:02.389Z,35.6
2018-03-24T05:35:52.743Z,35.6
2018-03-24T05:36:42.496Z,35.6
2018-03-24T05:37:33.132Z,35.6
2018-03-24T05:38:22.377Z,35.6
2018-03-24T05:39:13.058Z,35.6
2018-03-24T05:40:03.007Z,35.6
2018-03-24T05:40:52.243Z,35.6
2018-03-24T05:41:43.102Z,35.6
2018-03-24T05:42:32.420Z,35.6
2018-03-24T05:43:22.370Z,35.6
2018-03-24T05:44:13.325Z,35.6
2018-03-24T05:45:03.378Z,35.6
2018-03-24T05:45:52.804Z,35.6
2018-03-24T05:46:43.181Z,35.6
2018-03-24T05:47:33.490Z,35.6
2018-03-24T05:48:23.590Z,35.6
2018-03-24T05:49:13.337Z,35.6
2018-03-24T05:50:03.410Z,35.6
2018-03-24T05:50:53.447Z,35.6
2018-03-24T05:51:43.247Z,35.6
2018-03-24T05:52:33.552Z,35.6
2018-03-24T05:53:23.633Z,35.5
2018-03-24T05:54:13.689Z,35.5
2018-03-24T05:55:04.025Z,35.5
2018-03-24T05:55:53.348Z,35.5
2018-03-24T05:56:43.182Z,35.5
2018-03-24T05:57:34.198Z,35.5
2018-03-24T05:58:23.948Z,35.5
2018-03-24T05:59:14.561Z,35.4
2018-03-24T06:00:04.412Z,35.4
2018-03-24T06:00:54.684Z,35.4
2018-03-24T06:01:44.746Z,35.4
2018-03-24T06:02:34.856Z,35.4
2018-03-24T06:03:24.944Z,35.4
2018-03-24T06:04:14.658Z,35.4
2018-03-24T06:05:04.706Z,35.4
2018-03-24T06:05:54.751Z,35.4
2018-03-24T06:06:45.072Z,35.4
2018-03-24T06:07:34.568Z,35.4
2018-03-24T06:08:24.926Z,35.4
2018-03-24T06:09:14.959Z,35.4
2018-03-24T06:10:05.061Z,35.4
2018-03-24T06:10:54.785Z,35.4
2018-03-24T06:11:45.204Z,35.4
2018-03-24T06:12:35.513Z,35.3
2018-03-24T06:13:25.271Z,35.4
2018-03-24T06:14:15.351Z,35.3
2018-03-24T06:15:05.671Z,35.3
2018-03-24T06:15:55.479Z,35.3
2018-03-24T06:16:45.172Z,35.3
2018-03-24T06:17:35.831Z,35.3
2018-03-24T06:18:25.893Z,35.3
2018-03-24T06:19:15.957Z,35.3
2018-03-24T06:20:05.421Z,35.2
2018-03-24T06:20:56.041Z,35.2
2018-03-24T06:21:45.954Z,35.1
2018-03-24T06:22:35.898Z,35.1
2018-03-24T06:23:26.216Z,35.1
2018-03-24T06:24:16.024Z,35.1
2018-03-24T06:25:06.336Z,35.1
2018-03-24T06:25:56.172Z,35.1
2018-03-24T06:26:46.196Z,35
2018-03-24T06:27:36.611Z,35
2018-03-24T06:28:26.549Z,34.9
2018-03-24T06:29:16.654Z,34.9
2018-03-24T06:30:06.388Z,34.9
2018-03-24T06:30:56.733Z,34.9
2018-03-24T06:31:46.508Z,34.9
2018-03-24T06:32:36.284Z,34.9
2018-03-24T06:33:26.926Z,34.9
2018-03-24T06:34:16.161Z,34.9
2018-03-24T06:35:06.500Z,34.9
2018-03-24T06:35:56.517Z,34.9
2018-03-24T06:36:46.868Z,34.9
2018-03-24T06:37:37.165Z,34.8
2018-03-24T06:38:27.337Z,34.8
2018-03-24T06:39:16.453Z,34.8
2018-03-24T06:40:07.081Z,34.8
2018-03-24T06:40:57.340Z,34.8
2018-03-24T06:41:47.182Z,34.8
2018-03-24T06:42:37.075Z,34.8
2018-03-24T06:43:27.312Z,34.7
2018-03-24T06:44:17.128Z,34.7
2018-03-24T06:45:07.702Z,34.7
2018-03-24T06:45:57.777Z,34.7
2018-03-24T06:46:46.782Z,34.6
2018-03-24T06:47:37.634Z,34.6
2018-03-24T06:48:27.654Z,34.6
2018-03-24T06:49:18.062Z,34.6
2018-03-24T06:50:08.054Z,34.6
2018-03-24T06:50:57.866Z,34.5
2018-03-24T06:51:47.566Z,34.6
2018-03-24T06:52:37.653Z,34.5
2018-03-24T06:53:28.277Z,34.5
2018-03-24T06:54:17.625Z,34.5
2018-03-24T06:55:07.840Z,34.4
2018-03-24T06:55:58.177Z,34.4
2018-03-24T06:56:48.208Z,34.4
2018-03-24T06:57:38.287Z,34.4
2018-03-24T06:58:28.319Z,34.4
2018-03-24T06:59:18.472Z,34.4
2018-03-24T07:00:08.731Z,34.4
2018-03-24T07:00:58.329Z,34.3
2018-03-24T07:01:48.329Z,34.3
2018-03-24T07:02:38.584Z,34.3
2018-03-24T07:03:28.677Z,34.3
2018-03-24T07:04:18.722Z,34.4
2018-03-24T07:05:08.770Z,34.3
2018-03-24T07:05:58.836Z,34.3
2018-03-24T07:06:48.909Z,34.3
2018-03-24T07:07:39.234Z,34.4
2018-03-24T07:08:29.274Z,34.3
2018-03-24T07:09:19.076Z,34.4
2018-03-24T07:10:09.421Z,34.3
2018-03-24T07:10:59.438Z,34.4
2018-03-24T07:11:49.228Z,34.3
2018-03-24T07:12:39.050Z,34.3
2018-03-24T07:13:29.397Z,34.3
2018-03-24T07:14:19.099Z,34.3
2018-03-24T07:15:09.498Z,34.3
2018-03-24T07:15:59.503Z,34.3
2018-03-24T07:16:49.288Z,34.3
2018-03-24T07:17:39.613Z,34.3
2018-03-24T07:18:29.681Z,34.3
2018-03-24T07:19:19.735Z,34.3
2018-03-24T07:20:09.816Z,34.2
2018-03-24T07:21:00.107Z,34.2
2018-03-24T07:21:49.911Z,34.2
2018-03-24T07:22:39.702Z,34.1
2018-03-24T07:23:30.289Z,34.1
2018-03-24T07:24:20.328Z,34.1
2018-03-24T07:25:10.423Z,34.1
2018-03-24T07:26:00.525Z,34.1
2018-03-24T07:26:50.285Z,34
2018-03-24T07:27:40.688Z,34
2018-03-24T07:28:30.708Z,34
2018-03-24T07:29:20.154Z,33.9
2018-03-24T07:30:10.534Z,34
2018-03-24T07:31:00.348Z,33.9
2018-03-24T07:31:50.593Z,33.9
2018-03-24T07:32:40.975Z,33.9
2018-03-24T07:33:30.706Z,33.9
2018-03-24T07:34:20.793Z,33.9
2018-03-24T07:35:10.571Z,33.9
2018-03-24T07:36:01.165Z,33.8
2018-03-24T07:36:50.505Z,33.8
2018-03-24T07:37:40.268Z,33.8
2018-03-24T07:38:30.614Z,33.8
2018-03-24T07:39:21.416Z,33.8
2018-03-24T07:40:11.439Z,33.8
2018-03-24T07:41:00.660Z,33.8
2018-03-24T07:41:51.250Z,33.8
2018-03-24T07:42:41.031Z,33.7
2018-03-24T07:43:31.390Z,33.7
2018-03-24T07:44:21.444Z,33.7
2018-03-24T07:45:11.567Z,33.7
2018-03-24T07:46:01.569Z,33.6
2018-03-24T07:46:51.709Z,33.6
2018-03-24T07:47:41.944Z,33.6
2018-03-24T07:48:31.167Z,33.6
2018-03-24T07:49:21.869Z,33.6
2018-03-24T07:50:11.564Z,33.6
2018-03-24T07:51:02.246Z,33.6
2018-03-24T07:51:51.924Z,33.5
2018-03-24T07:52:41.781Z,33.5
2018-03-24T07:53:32.333Z,33.5
2018-03-24T07:54:22.099Z,33.4
2018-03-24T07:55:12.182Z,33.5
2018-03-24T07:56:02.274Z,33.4
2018-03-24T07:56:52.267Z,33.4
2018-03-24T07:57:42.085Z,33.4
2018-03-24T07:58:31.817Z,33.4
2018-03-24T07:59:22.757Z,33.4
2018-03-24T08:00:12.791Z,33.3
2018-03-24T08:01:02.906Z,33.3
2018-03-24T08:01:52.901Z,33.2
2018-03-24T08:02:42.964Z,33.1
2018-03-24T08:03:32.739Z,33.1
2018-03-24T08:04:23.235Z,33
2018-03-24T08:05:12.923Z,32.9
2018-03-24T08:06:02.608Z,32.9
2018-03-24T08:06:52.704Z,32.8
2018-03-24T08:07:43.144Z,32.8
2018-03-24T08:08:32.851Z,32.8
2018-03-24T08:09:22.932Z,32.7
2018-03-24T08:10:12.764Z,32.6
2018-03-24T08:11:03.586Z,32.6
2018-03-24T08:11:53.328Z,32.5
2018-03-24T08:12:43.076Z,32.4
2018-03-24T08:13:33.438Z,32.4
2018-03-24T08:14:23.181Z,32.3
2018-03-24T08:15:13.805Z,32.2
2018-03-24T08:16:03.301Z,32.1
2018-03-24T08:16:52.174Z,32.1
2018-03-24T08:17:42.665Z,31.9
2018-03-24T08:18:33.409Z,31.9
2018-03-24T08:19:22.470Z,31.9
2018-03-24T08:20:13.318Z,31.8
2018-03-24T08:21:03.205Z,31.8
2018-03-24T08:21:53.468Z,31.7
2018-03-24T08:22:42.711Z,31.6
2018-03-24T08:23:33.074Z,31.6
2018-03-24T08:24:23.551Z,31.5
2018-03-24T08:25:13.660Z,31.4
2018-03-24T08:26:03.543Z,31.4
2018-03-24T08:26:53.262Z,31.3
2018-03-24T08:27:43.163Z,31.3
2018-03-24T08:28:34.185Z,31.2
2018-03-24T08:29:22.557Z,31.2
2018-03-24T08:30:13.599Z,31.1
2018-03-24T08:31:03.856Z,31
2018-03-24T08:31:53.859Z,31
2018-03-24T08:32:43.590Z,30.9
2018-03-24T08:33:33.854Z,30.9
2018-03-24T08:34:24.252Z,30.9
2018-03-24T08:35:13.954Z,30.8
2018-03-24T08:36:03.711Z,30.8
2018-03-24T08:36:53.669Z,30.7
2018-03-24T08:37:44.059Z,30.7
2018-03-24T08:38:33.287Z,30.6
2018-03-24T08:39:23.920Z,30.6
2018-03-24T08:40:13.704Z,30.6
2018-03-24T08:41:03.685Z,30.6
2018-03-24T08:41:54.075Z,30.5
2018-03-24T08:42:44.669Z,30.5
2018-03-24T08:43:34.999Z,30.5
2018-03-24T08:44:24.062Z,30.4
2018-03-24T08:45:14.370Z,30.4
2018-03-24T08:46:04.470Z,30.4
2018-03-24T08:46:54.443Z,30.4
2018-03-24T08:47:45.322Z,30.3
2018-03-24T08:48:34.565Z,30.3
2018-03-24T08:49:24.605Z,30.3
2018-03-24T08:50:15.087Z,30.3
2018-03-24T08:51:04.934Z,30.3
2018-03-24T08:51:55.168Z,30.3
2018-03-24T08:52:45.045Z,30.2
2018-03-24T08:53:35.676Z,30.2
2018-03-24T08:54:25.234Z,30.2
2018-03-24T08:55:15.503Z,30.2
2018-03-24T08:56:04.638Z,30.1
2018-03-24T08:56:56.128Z,30.1
2018-03-24T08:57:45.394Z,30.1
2018-03-24T08:58:35.421Z,30.1
2018-03-24T08:59:25.493Z,30.1
2018-03-24T09:00:15.251Z,30.1
2018-03-24T09:01:06.388Z,30.1
2018-03-24T09:01:55.348Z,30
2018-03-24T09:02:45.496Z,30
2018-03-24T09:03:35.753Z,30
2018-03-24T09:04:25.231Z,30
2018-03-24T09:05:15.368Z,29.9
2018-03-24T09:06:06.532Z,29.9
2018-03-24T09:06:56.355Z,29.9
2018-03-24T09:07:45.391Z,29.9
2018-03-24T09:08:35.988Z,29.9
2018-03-24T09:09:26.187Z,29.9
2018-03-24T09:10:16.224Z,29.9
2018-03-24T09:11:06.635Z,29.9
2018-03-24T09:11:56.320Z,29.9
2018-03-24T09:12:46.677Z,29.9
2018-03-24T09:13:36.332Z,29.8
2018-03-24T09:14:26.409Z,29.9
2018-03-24T09:15:17.079Z,29.8
2018-03-24T09:16:06.899Z,29.8
2018-03-24T09:16:57.039Z,29.8
2018-03-24T09:17:47.316Z,29.8
2018-03-24T09:18:37.839Z,29.8
2018-03-24T09:19:26.759Z,29.8
2018-03-24T09:20:17.985Z,29.8
2018-03-24T09:21:07.275Z,29.8
2018-03-24T09:21:56.725Z,29.8
2018-03-24T09:22:47.176Z,29.8
2018-03-24T09:23:36.922Z,29.7
2018-03-24T09:24:26.529Z,29.7
2018-03-24T09:25:16.800Z,29.7
2018-03-24T09:26:07.837Z,29.8
2018-03-24T09:26:57.837Z,29.7
2018-03-24T09:27:47.694Z,29.7
2018-03-24T09:28:37.382Z,29.7
2018-03-24T09:29:28.594Z,29.7
2018-03-24T09:30:18.368Z,29.6
2018-03-24T09:31:07.822Z,29.6
2018-03-24T09:31:57.471Z,29.6
2018-03-24T09:32:48.505Z,29.6
2018-03-24T09:33:36.923Z,29.6
2018-03-24T09:34:27.793Z,29.6
2018-03-24T09:35:18.451Z,29.6
2018-03-24T09:36:08.458Z,29.6
2018-03-24T09:36:58.032Z,31.7
2018-03-24T09:37:47.603Z,39.7
2018-03-24T09:38:38.433Z,40.6
2018-03-24T09:39:28.486Z,44.9
2018-03-24T09:40:18.736Z,47.7
2018-03-24T09:41:08.931Z,48.8
2018-03-24T09:41:58.281Z,48.6
2018-03-24T09:42:48.919Z,48.2
2018-03-24T09:43:38.688Z,47.8
2018-03-24T09:44:28.147Z,47.4
2018-03-24T09:45:18.703Z,46.9
2018-03-24T09:46:08.629Z,46.4
2018-03-24T09:46:58.601Z,46
2018-03-24T09:47:49.063Z,45.6
2018-03-24T09:48:37.831Z,45.1
2018-03-24T17:51:50.496Z,26.9
2018-03-24T17:52:41.325Z,26.9
2018-03-24T17:53:31.205Z,26.9
2018-03-24T17:54:20.976Z,26.9
2018-03-24T17:55:11.090Z,26.9
2018-03-24T17:56:00.787Z,26.9
2018-03-24T17:56:51.397Z,26.9
2018-03-24T17:57:41.047Z,26.9
2018-03-24T17:58:31.182Z,26.9
2018-03-24T17:59:21.609Z,26.9
2018-03-24T18:00:11.672Z,26.9
2018-03-24T18:01:01.118Z,26.9
2018-03-24T18:01:51.102Z,26.9
2018-03-24T18:02:41.453Z,26.9
2018-03-24T18:03:31.435Z,26.9
2018-03-24T18:04:22.119Z,26.9
2018-03-24T18:05:11.979Z,26.8
2018-03-24T18:06:02.137Z,26.8
2018-03-24T18:06:52.162Z,26.8
2018-03-24T18:07:42.368Z,26.8
2018-03-24T18:08:31.500Z,26.8
2018-03-24T18:09:22.728Z,26.8
2018-03-24T18:10:12.887Z,26.8
2018-03-24T18:11:02.299Z,26.8
2018-03-24T18:11:53.177Z,26.8
2018-03-24T18:12:43.507Z,26.8
2018-03-24T18:13:32.532Z,26.8
2018-03-24T18:14:22.584Z,26.8
2018-03-24T18:15:12.913Z,26.8
2018-03-24T18:16:03.211Z,26.8
2018-03-24T18:16:53.300Z,26.8
2018-03-24T18:17:43.070Z,26.8
2018-03-24T18:18:33.444Z,26.8
2018-03-24T18:19:23.467Z,26.8
2018-03-24T18:20:13.557Z,26.8
2018-03-24T18:21:02.751Z,26.8
2018-03-24T18:21:53.353Z,26.7
2018-03-24T18:22:43.695Z,26.8
2018-03-24T18:23:33.489Z,26.7
2018-03-24T18:24:23.545Z,26.7
2018-03-24T18:25:13.583Z,26.7
2018-03-24T18:26:03.400Z,26.7
2018-03-24T18:26:54.198Z,26.7
2018-03-24T18:27:44.033Z,26.8
2018-03-24T18:28:32.955Z,26.6
2018-03-24T18:29:23.080Z,26.7
2018-03-24T18:30:13.348Z,26.7
2018-03-24T18:31:04.005Z,26.7
2018-03-24T18:31:54.058Z,26.7
2018-03-24T18:32:44.101Z,26.6
2018-03-24T18:33:34.159Z,26.6
2018-03-24T18:34:24.239Z,26.7
2018-03-24T18:35:15.032Z,26.6
2018-03-24T18:36:02.923Z,26.6
2018-03-24T18:36:52.722Z,26.6
2018-03-24T18:37:43.266Z,26.6
2018-03-24T18:38:34.162Z,26.6
2018-03-24T18:39:24.771Z,26.6
2018-03-24T18:40:13.575Z,26.6
2018-03-24T18:41:03.630Z,26.6
2018-03-24T18:41:53.095Z,26.6
2018-03-24T18:42:43.675Z,26.6
2018-03-24T18:43:34.384Z,26.6
2018-03-24T18:44:25.210Z,26.6
2018-03-24T18:45:15.174Z,26.6
2018-03-24T18:46:05.217Z,26.6
2018-03-24T18:46:55.519Z,26.6
2018-03-24T18:47:45.665Z,26.6
2018-03-24T18:48:35.234Z,26.6
2018-03-24T18:49:25.289Z,26.6
2018-03-24T18:50:16.065Z,26.6
2018-03-24T18:51:06.086Z,26.6
2018-03-24T18:51:55.637Z,26.5
2018-03-24T18:52:45.981Z,26.5
2018-03-24T18:53:35.984Z,26.5
2018-03-24T18:54:25.608Z,26.6
2018-03-24T18:55:16.101Z,26.5
2018-03-24T18:56:06.443Z,26.5
2018-03-24T18:56:56.498Z,26.5
2018-03-24T18:57:46.542Z,26.5
2018-03-24T18:58:36.675Z,26.5
2018-03-24T18:59:26.370Z,26.5
2018-03-24T19:00:16.434Z,26.4
2018-03-24T19:01:06.545Z,26.5
2018-03-24T19:01:56.549Z,26.4
2018-03-24T19:02:46.321Z,26.4
2018-03-24T19:03:36.094Z,26.4
2018-03-24T19:04:27.048Z,26.4
2018-03-24T19:05:17.320Z,26.4
2018-03-24T19:06:07.096Z,26.4
2018-03-24T19:06:57.151Z,26.4
2018-03-24T19:07:47.028Z,26.4
2018-03-24T19:08:36.713Z,26.4
2018-03-24T19:09:26.745Z,26.4
2018-03-24T19:10:17.088Z,26.4
2018-03-24T19:11:07.205Z,26.4